Time;durP1;ratioP1;P1;durP2;ratioP2;P2;SDS_P1;SDS_P2;PMS_P1;PMS_P2;Temp;Humidity;BMP_temperature;BMP_pressure;BME280_temperature;BME280_humidity;BME280_pressure;Samples;Min_cycle;Max_cycle;Signal;HPM_P1;HPM_P2
2021/10/16 00:00:15;;;;;;;8.90;5.00;;;;;;;5.73;80.60;100388.34;4988077;28;105963;-66
2021/10/16 00:02:40;;;;;;;7.13;4.75;;;;;;;5.69;80.81;100384.28;4988158;28;106159;-66
2021/10/16 00:05:06;;;;;;;8.23;4.97;;;;;;;5.67;80.65;100383.59;4989154;28;106078;-68
2021/10/16 00:07:32;;;;;;;8.43;4.65;;;;;;;5.68;80.84;100390.53;4987912;28;106010;-66
2021/10/16 00:09:58;;;;;;;8.40;4.75;;;;;;;5.69;81.36;100386.94;4988171;28;106410;-68
2021/10/16 00:12:23;;;;;;;10.50;4.72;;;;;;;5.70;81.19;100387.75;4987896;28;106100;-62
2021/10/16 00:14:49;;;;;;;7.45;4.68;;;;;;;5.72;81.30;100388.47;4988769;28;105951;-64
2021/10/16 00:17:14;;;;;;;10.65;5.13;;;;;;;5.71;80.95;100390.28;4988218;28;106150;-63
2021/10/16 00:19:40;;;;;;;11.40;5.28;;;;;;;5.69;81.06;100400.16;4987434;28;106386;-67
2021/10/16 00:22:05;;;;;;;7.40;4.85;;;;;;;5.68;81.44;100398.47;4986913;28;106551;-64
2021/10/16 00:24:31;;;;;;;11.50;5.25;;;;;;;5.69;81.19;100401.97;4988435;28;106081;-62
2021/10/16 00:26:57;;;;;;;9.52;5.28;;;;;;;5.69;81.28;100399.31;4987954;28;106257;-62
2021/10/16 00:29:23;;;;;;;12.55;4.55;;;;;;;5.68;81.65;100397.66;4987657;28;105937;-63
2021/10/16 00:31:49;;;;;;;9.13;5.07;;;;;;;5.67;81.48;100401.25;4987090;28;106054;-68
2021/10/16 00:34:14;;;;;;;7.40;4.22;;;;;;;5.64;81.31;100390.94;4988404;28;106794;-61
2021/10/16 00:36:40;;;;;;;9.82;5.30;;;;;;;5.62;81.43;100408.72;4988117;28;106271;-61
2021/10/16 00:39:05;;;;;;;7.85;4.85;;;;;;;5.58;81.30;100400.25;4987146;28;106106;-62
2021/10/16 00:41:30;;;;;;;8.82;4.70;;;;;;;5.55;81.26;100406.63;4987655;28;106138;-61
2021/10/16 00:44:18;;;;;;;9.93;5.18;;;;;;;5.50;81.44;100397.44;4988050;28;106537;-62
2021/10/16 00:46:44;;;;;;;7.90;4.78;;;;;;;5.50;81.28;100410.66;4987464;28;106188;-69
2021/10/16 00:49:10;;;;;;;10.05;5.07;;;;;;;5.48;81.72;100409.94;4987567;28;106671;-69
2021/10/16 00:51:36;;;;;;;12.63;5.07;;;;;;;5.45;81.35;100407.56;4987436;28;106301;-62
2021/10/16 00:54:01;;;;;;;7.28;5.07;;;;;;;5.46;81.63;100409.25;4987991;28;106135;-62
2021/10/16 00:56:28;;;;;;;14.35;6.05;;;;;;;5.45;81.26;100412.84;4987203;28;106290;-68
2021/10/16 00:58:54;;;;;;;9.60;5.28;;;;;;;5.43;81.56;100403.22;4987168;28;106015;-67
2021/10/16 01:01:20;;;;;;;10.35;4.90;;;;;;;5.42;81.48;100406.84;4986724;28;106086;-62
2021/10/16 01:03:45;;;;;;;10.75;4.95;;;;;;;5.43;81.78;100407.69;4988278;28;106610;-68
2021/10/16 01:06:11;;;;;;;7.80;4.80;;;;;;;5.41;81.69;100409.63;4987377;28;106230;-64
2021/10/16 01:08:37;;;;;;;10.50;5.10;;;;;;;5.41;81.62;100409.63;4986916;28;105983;-64
2021/10/16 01:11:03;;;;;;;8.57;4.80;;;;;;;5.40;82.00;100406.16;4986826;28;106046;-70
2021/10/16 01:13:28;;;;;;;9.85;5.65;;;;;;;5.40;81.78;100410.59;4987706;28;106138;-66
2021/10/16 01:15:56;;;;;;;6.25;5.22;;;;;;;5.37;81.57;100403.78;4987390;28;106165;-64
2021/10/16 01:18:21;;;;;;;13.32;5.63;;;;;;;5.36;81.85;100411.84;4987037;28;105927;-61
2021/10/16 01:21:08;;;;;;;13.45;5.60;;;;;;;5.35;81.93;100410.97;4985072;28;107006;-65
2021/10/16 01:23:35;;;;;;;12.93;4.97;;;;;;;5.35;82.03;100416.25;4987817;28;106057;-70
2021/10/16 01:26:03;;;;;;;12.25;5.53;;;;;;;5.35;81.76;100413.63;4987448;28;106094;-61
2021/10/16 01:28:29;;;;;;;13.68;6.13;;;;;;;5.33;81.84;100407.66;4986962;28;105998;-61
2021/10/16 01:30:56;;;;;;;11.40;5.60;;;;;;;5.32;82.04;100410.44;4986937;28;106224;-61
2021/10/16 01:33:28;;;;;;;11.45;5.97;;;;;;;5.32;81.86;100400.69;4986868;28;106137;-62
2021/10/16 01:36:05;;;;;;;11.70;6.03;;;;;;;5.31;81.90;100404.28;4987052;28;106049;-63
2021/10/16 01:38:32;;;;;;;14.88;5.57;;;;;;;5.30;81.92;100405.25;4996461;28;106175;-62
2021/10/16 01:40:58;;;;;;;10.45;5.93;;;;;;;5.29;82.19;100398.31;5006539;28;106667;-68
2021/10/16 01:43:25;;;;;;;10.40;5.60;;;;;;;5.30;82.15;100401.78;5006933;28;106064;-64
2021/10/16 15:55:00;;;;;;;9.27;3.63;;;;;;;9.98;50.68;100660.91;5007550;28;106084;-67
2021/10/16 15:57:25;;;;;;;7.72;3.30;;;;;;;9.96;50.82;100661.06;5003076;28;106291;-70
2021/10/16 15:59:50;;;;;;;11.30;3.33;;;;;;;9.97;51.54;100664.56;5004413;28;105859;-63
2021/10/16 16:02:17;;;;;;;7.38;3.28;;;;;;;10.00;52.01;100669.56;5003673;28;110603;-64
2021/10/16 16:04:43;;;;;;;10.63;5.63;;;;;;;10.05;52.37;100669.94;5003420;28;106150;-67
2021/10/16 16:07:09;;;;;;;23.85;15.07;;;;;;;10.08;52.41;100672.28;5004248;28;106126;-72
2021/10/16 16:09:34;;;;;;;23.40;14.43;;;;;;;10.10;52.64;100664.13;5002600;28;106226;-69
2021/10/16 16:12:00;;;;;;;21.17;10.07;;;;;;;10.10;53.10;100672.97;5002659;28;106095;-75
2021/10/16 16:14:25;;;;;;;18.08;10.43;;;;;;;10.11;52.97;100676.47;5002463;28;106649;-73
2021/10/16 16:16:50;;;;;;;12.57;7.97;;;;;;;10.10;53.44;100674.78;5003532;28;106021;-73
2021/10/16 16:19:15;;;;;;;14.18;7.05;;;;;;;10.09;53.72;100673.13;5003407;28;106210;-71
2021/10/16 16:21:41;;;;;;;12.90;6.45;;;;;;;10.06;53.63;100670.75;5002920;28;107097;-75
2021/10/16 16:24:06;;;;;;;14.93;7.45;;;;;;;10.04;53.75;100681.56;5003362;28;105952;-74
2021/10/16 16:26:33;;;;;;;21.73;12.07;;;;;;;10.02;54.07;100680.91;5004242;28;106056;-77
2021/10/16 16:28:58;;;;;;;32.05;16.58;;;;;;;9.97;54.58;100681.34;5002935;28;106157;-72
2021/10/16 16:31:23;;;;;;;50.45;29.50;;;;;;;9.94;54.44;100686.16;5002703;28;106422;-71
2021/10/16 16:33:49;;;;;;;38.35;21.63;;;;;;;9.90;54.96;100682.97;5001710;28;106297;-70
2021/10/16 16:36:14;;;;;;;34.33;16.30;;;;;;;9.89;54.90;100685.78;5003309;28;106051;-73
2021/10/16 16:38:39;;;;;;;30.27;17.45;;;;;;;9.89;55.17;100683.13;5002769;28;106221;-68
2021/10/16 16:41:05;;;;;;;36.28;17.88;;;;;;;9.88;55.42;100684.09;5002409;28;106068;-72
2021/10/16 16:43:30;;;;;;;37.40;20.10;;;;;;;9.88;55.86;100692.09;5002701;28;106697;-70
2021/10/16 16:45:56;;;;;;;42.28;22.58;;;;;;;9.86;55.77;100694.06;5002892;28;106027;-64
2021/10/16 16:48:22;;;;;;;48.33;28.75;;;;;;;9.82;55.95;100699.69;5002713;28;106205;-69
2021/10/16 16:50:47;;;;;;;41.38;23.35;;;;;;;9.82;56.29;100690.88;5001910;28;106540;-67
2021/10/16 16:53:12;;;;;;;36.05;22.15;;;;;;;9.80;56.35;100696.34;5001723;28;106150;-70
2021/10/16 16:55:38;;;;;;;32.67;19.40;;;;;;;9.81;56.40;100699.84;5002494;28;105989;-69
2021/10/16 16:58:03;;;;;;;36.28;19.83;;;;;;;9.80;56.78;100691.03;5002571;28;106171;-70
2021/10/16 17:00:29;;;;;;;27.65;17.60;;;;;;;9.77;56.62;100694.00;5001961;28;106027;-67
2021/10/16 17:02:54;;;;;;;29.77;15.60;;;;;;;9.73;56.88;100695.31;5001770;28;106456;-70
2021/10/16 17:05:20;;;;;;;42.05;23.83;;;;;;;9.71;57.29;100693.78;4995468;28;106136;-71
2021/10/16 17:07:45;;;;;;;40.50;21.35;;;;;;;9.68;57.46;100694.91;4989074;28;107056;-75
2021/10/16 17:10:12;;;;;;;61.58;31.95;;;;;;;9.67;57.54;100703.88;4988789;28;106171;-72
2021/10/16 17:12:39;;;;;;;91.80;51.03;;;;;;;9.65;57.75;100705.88;4988390;28;106297;-71
2021/10/16 17:15:05;;;;;;;82.88;43.05;;;;;;;9.60;57.67;100702.81;4989413;28;106247;-71
2021/10/16 17:17:31;;;;;;;71.25;35.28;;;;;;;9.56;58.16;100707.59;4988986;28;106257;-66
2021/10/16 17:19:56;;;;;;;89.70;47.17;;;;;;;9.54;58.12;100706.91;4988569;28;106699;-68
2021/10/16 17:22:22;;;;;;;73.38;37.17;;;;;;;9.51;58.24;100709.03;4988759;28;106471;-73
2021/10/16 17:24:48;;;;;;;57.25;26.45;;;;;;;9.48;58.50;100716.31;4989768;28;106591;-65
2021/10/16 17:27:14;;;;;;;42.08;19.38;;;;;;;9.43;58.45;100702.66;4988942;28;106435;-65
2021/10/16 17:29:40;;;;;;;45.83;23.15;;;;;;;9.38;58.27;100704.91;4988799;28;106664;-66
2021/10/16 17:32:05;;;;;;;65.25;29.77;;;;;;;9.33;58.62;100712.50;4988303;28;106052;-67
2021/10/16 17:34:31;;;;;;;40.13;21.05;;;;;;;9.24;58.88;100708.06;4989295;28;106323;-67
2021/10/16 17:36:58;;;;;;;46.83;23.40;;;;;;;9.18;59.07;100714.00;4988476;28;106261;-66
2021/10/16 17:39:25;;;;;;;37.75;19.45;;;;;;;9.12;59.22;100708.28;4987977;28;106477;-68
2021/10/16 17:41:50;;;;;;;33.83;18.52;;;;;;;9.09;59.25;100705.91;4988176;28;106142;-68
2021/10/16 17:44:17;;;;;;;46.95;22.58;;;;;;;9.07;59.39;100697.25;4988344;28;106138;-67
2021/10/16 17:46:42;;;;;;;30.95;16.15;;;;;;;9.04;59.66;100702.88;4988371;28;106163;-68
2021/10/16 17:49:08;;;;;;;29.60;17.00;;;;;;;9.02;59.57;100702.19;4988010;28;106480;-68
2021/10/16 17:51:34;;;;;;;34.58;19.05;;;;;;;8.98;59.68;100696.31;4988231;28;106060;-72
2021/10/16 17:54:00;;;;;;;32.60;17.02;;;;;;;8.96;60.30;100705.41;4988433;28;106071;-67
2021/10/16 17:56:25;;;;;;;32.13;16.95;;;;;;;8.89;59.97;100696.38;4988057;28;106493;-67
